Aviation Digital Data Service (ADDS)

Output produced by METARs form (2217 UTC 10 December 2016)
found at http://aviationweather.gov/adds/metars/
 
KDAG 102150Z AUTO 25025G33KT 10SM CLR 24/08 A2998 RMK AO2 PK WND 25039/2053 SLP142 T02390083
KDAG 101855Z 1019/1118 27022G31KT P6SM BKN250 
     FM110700 27014G24KT P6SM BKN200
       
KEDW 102158Z AUTO 27013KT 10SM CLR 21/10 A3003 RMK AO2 SLP163 T02130095
TAF AMD KEDW 102116Z 1021/1124 27012G20KT 9999 FEW050 OVC230 520009 QNH2998INS 
     TEMPO 1021/1102 28025G35KT 
     BECMG 1104/1105 24012G18KT 9999 FEW050 SCT150 QNH3005INS 
     BECMG 1111/1112 27012KT 9999 SCT050 BKN100 QNH3004INS 
     BECMG 1117/1118 27012G18KT 9999 SCT080 BKN150 QNH3006INS 
     BECMG 1120/1121 28012G18KT 9999 FEW100 SCT200 QNH3005INS TX24/1023Z TN09/1113Z
       
KVCV 102155Z AUTO 28019G26KT 10SM SCT048 21/08 A3008 RMK AO2
KONT 102153Z VRB03KT 6SM HZ FEW060 FEW150 BKN200 17/11 A3010 RMK AO2 SLP191 T01720111
KONT 101933Z 1020/1124 26006KT P6SM SCT012 BKN200 
     FM110400 25006KT 4SM -DZ FEW003 OVC010 
     FM112000 26006KT 6SM HZ SCT010 BKN020
       
KNID 102156Z AUTO 30005KT 10SM CLR 16/M03 A2995 RMK AO2 SLP145 T01561028 $
TAF KNID 0923/1023 VRB05KT 9999 FEW100 SCT200 BKN280 QNH3016INS 
     BECMG 1002/1004 21006KT 9999 FEW200 SCT280 QNH3019INS 
     BECMG 1017/1019 22012G20KT 9999 FEW080 SCT220 BKN280 520009 QNH3000INS 
     BECMG 1019/1021 232018G30KT 530009 520906 QNH2998INS T03/1012Z T21/1021Z LAST NO AMDS AFT 1006 NEXT 1215
       
KSNA 102153Z 21006KT 10SM OVC017 17/14 A3012 RMK AO2 SLP198 T01670144
KSNA 101933Z 1020/1118 22007KT P6SM OVC020 
     TEMPO 1021/1023 SCT020 
     FM110200 VRB06KT 4SM -DZ BR OVC017
       
KSAN 102151Z 29009KT 10SM SCT020 BKN200 19/12 A3012 RMK AO2 SLP199 T01890122
KSAN 102100Z 1021/1124 29008KT P6SM SCT020 BKN200 
     TEMPO 1023/1101 BKN020 
     FM110100 VRB06KT P6SM -DZ OVC017
       
TAF KNXP 1021/1121 24008KT 9999 FEW250 QNH3007INS 
     BECMG 1109/1111 28005KT 9999 FEW040 SCT200 QNH2996INS T20/1023Z T11/1114Z
       
KPSP 102150Z 10008KT 10SM SKC 23/06 A3001
KPSP 101725Z 1018/1118 VRB06KT P6SM BKN150
       
KLAX 102153Z 25009KT 4SM HZ SCT024 BKN280 17/13 A3012 RMK AO2 SLP198 T01720128
KLAX 102012Z 1020/1124 VRB03KT 3SM BR SCT015 SCT200 
     FM102130 26010KT 4SM HZ SCT015 BKN025 
     FM110300 VRB03KT 4SM BR SCT006 OVC012 
     FM111200 VRB03KT 3SM BR VCSH SCT008 OVC015 
     FM112000 25008KT 6SM BR SCT015 BKN025
       
KCNO 102153Z 27005KT 5SM HZ CLR 19/12 A3011 RMK AO2 SLP195 T01940117
KSMO 102151Z 21007KT 5SM HZ SCT028 BKN037 17/13 A3011 RMK AO2 SLP197 T01720128
KSMO 102209Z 1022/1118 22008KT 5SM HZ SCT015 BKN025 
     FM110300 VRB03KT 4SM BR SCT006 OVC012 
     FM111200 VRB03KT 3SM BR VCSH SCT008 OVC025
       
KLGB 102153Z 16004KT 5SM HZ OVC021 17/11 A3011 RMK AO2 SLP196 T01720111 $
KLGB 102019Z 1020/1118 19005KT 5SM BR SCT015 BKN020 
     FM110000 29008KT 6SM HZ OVC020 
     FM110400 VRB03KT 5SM BR SCT006 OVC012 
     FM111400 VRB03KT 4SM BR VCSH SCT008 OVC015
       
KVNY 102151Z 11005KT 5SM HZ BKN028 18/11 A3010 RMK AO2 SLP189 T01830111
KVNY 102207Z 1022/1118 16006KT 5SM HZ BKN025 
     FM110300 VRB03KT 4SM BR OVC015 
     FM110500 VRB03KT 3SM BR OVC008 
     FM110900 VRB03KT 2SM BR VCSH OVC006
       
KBUR 102153Z 18006KT 4SM HZ CLR 18/10 A3010 RMK AO2 SLP186 T01830100
KBUR 102208Z 1022/1118 17006KT 5SM HZ BKN025 
     FM110300 VRB03KT 4SM BR OVC015 
     FM110500 VRB03KT 3SM BR OVC008 
     FM110900 VRB03KT 2SM BR VCSH OVC006
       
KBFL 102154Z 00000KT 10SM BKN033 OVC055 20/12 A3008 RMK AO2 SLP184 T02000122
KBFL 101739Z 1018/1118 13003KT P6SM BKN028 OVC035 
     FM102100 33005KT P6SM OVC050 
     FM110600 01007KT 5SM -RA BR OVC050 
     FM110900 02005KT 4SM -RA BR OVC025
       
KPMD 102153Z AUTO 31018KT 10SM FEW049 21/11 A3008 RMK AO2 SLP176 T02060106
KPMD 101912Z 1019/1118 29015KT P6SM SCT060 
     FM102100 28018G25KT P6SM SCT060 
     FM110300 26014KT P6SM SCT050 
     FM110600 24010KT P6SM BKN040
       
KOXR 102151Z 24004KT 3SM HZ OVC009 17/14 A3010 RMK AO2 CIG 006V013 SLP192 T01720144
KOXR 102016Z 1020/1118 16006KT 2SM BR OVC006 
     FM102200 26010KT 2SM BR BKN006 
     FM110000 26012KT 5SM BR OVC008 
     FM110300 VRB03KT 4SM BR BKN006 OVC012 
     FM111200 VRB03KT 3SM BR VCSH OVC008
       
KWJF 102156Z 26020KT 10SM OVC050 19/11 A3009 RMK AO2 PK WND 28030/2057 SLP185 T01890111
KWJF 101751Z 1018/1118 27015G20KT P6SM SCT050 
     FM102100 27020G28KT P6SM SCT050 
     FM110300 26015KT P6SM BKN050
       
KCMA 102209Z 20009KT 4SM BR SCT007 OVC014 17/15 A3010 RMK AO2 T01670150
KCMA 102018Z 1020/1118 20006KT 3SM BR OVC008 
     FM102200 23010KT 3SM BR BKN008 
     FM110300 VRB03KT 4SM BR OVC006 
     FM111200 VRB03KT 3SM BR VCSH OVC008
       
KFAT 102153Z VRB03KT 4SM HZ FEW055 OVC100 19/13 A3008 RMK AO2 SLP184 T01940133
KFAT 101739Z 1018/1118 12003KT P6SM VCSH FEW045 BKN060 
     FM102200 13008KT 4SM -RA BR SCT015 OVC035 
     FM110000 11006KT 2SM -RA BR OVC025 
     FM111000 33004KT 4SM BR OVC015
       
KEED 102156Z AUTO VRB03KT 10SM CLR 19/M03 A3003 RMK AO2 SLP156 T01891028
KEED 101739Z 1018/1118 VRB05KT P6SM BKN250 
     FM102000 20006KT P6SM FEW070 BKN250 
     FM110200 24006KT P6SM SCT140 BKN250
       
KLSV 102158Z AUTO 09003KT 10SM CLR 15/M04 A3002 RMK AO2 SLP165 T01471039 $
TAF KLSV 101504Z 1015/1121 VRB06KT 9999 FEW100 FEW200 QNH3012INS 
     BECMG 1017/1018 10009KT 9999 FEW120 QNH3001INS 
     BECMG 1102/1103 09009KT 9999 SCT120 BKN150 QNH3001INS 
     BECMG 1108/1109 VRB06KT 9999 SCT025 BKN100 QNH3000INS 
     BECMG 1117/1118 10009KT 9999 SCT040 QNH3006INS TX14/1021Z TN00/1015Z
       
KLAS 102156Z 00000KT 10SM FEW140 SCT220 14/M07 A3002 RMK AO2 SLP164 T01391067
KLAS 102044Z 1021/1118 07006KT P6SM FEW150 SCT250 
     FM110300 22008KT P6SM FEW070 SCT150 OVC200 
     FM111500 18005KT P6SM SCT250
       
KHII 102155Z AUTO 00000KT 10SM CLR 19/M02 A3003 RMK AO2
KIFP 102155Z AUTO 20005KT 10SM CLR 19/M01 A3003 RMK AO2
KIFP 101739Z 1018/1118 VRB05KT P6SM BKN250 
     FM101900 19008KT P6SM FEW070 BKN250 
     FM102300 16010KT P6SM SCT070 OVC250 
     FM110900 VRB05KT P6SM SCT070 OVC250